Weather in Lodz

0623 UTC 11 December 2018 EPLL 110600Z 20005KT 160V240 9999 FEW006 BKN014 BKN039 01/00 Q1007

Where pilots are born

  • Michele from Italy

    „The best”

  • Maciej from UK

    “Great place, good aircrafts and amazing atmosphere!!!”

  • Alan from Ireland

    “Fantastic flight school . Fleet of aircraft are exceptional . Instructors are second to none . I couldn't speak any higher...

22000+

Operations per year

1500+

Number of trained pilots

55+

Nationality students

How to join the training?